Seago Piraeus — OXVD2 — position and weather

sailwx.info

Track history (hours):
 
Tides and Currents Weather Stations Pressure Air Temp Water Temp Dewpoint Dewpoint Depression Visibility Wind Speed Wind Dir Waves Ship Positions

Seago Piraeus

Last reported at 2014-Sep-24 01:28 UTC. Time now 2014-Sep-24 04:26 UTC.
Position N 40°46' E 029°43'.

Length 294 m; draft 12.3 m.

Type: Ship (hazmat cat A). MMSI: 219117000.

Date/timePositionNaut miles runAvg speedWind from/ knotsBaromVisibWave heightAir tempDewpointWater temp
2014-Sep-24 01:28N 40°46' E 029°43'0 0.0
2014-Sep-23 23:16N 40°46' E 029°43'1 0.1
2014-Sep-23 02:18N 40°46' E 029°41'810.9
2014-Sep-23 01:33N 40°45' E 029°30'9 8.8
2014-Sep-23 00:32N 40°44' E 029°19'4 4.5
2014-Sep-22 23:33N 40°46' E 029°14'0 0.1
2014-Sep-22 22:33N 40°46' E 029°14'0 0.2
2014-Sep-22 21:33N 40°46' E 029°13'1 1.4
2014-Sep-22 20:33N 40°45' E 029°12'2 2.0
2014-Sep-22 19:33N 40°44' E 029°14'1 0.7
2014-Sep-22 18:33N 40°45' E 029°14'3 3.1
2014-Sep-22 17:33N 40°43' E 029°10'2 1.9
2014-Sep-22 16:33N 40°45' E 029°12'1 0.7
2014-Sep-22 15:33N 40°45' E 029°12'1 0.8
2014-Sep-22 14:33N 40°44' E 029°13'1 1.4
2014-Sep-22 13:33N 40°44' E 029°15'2 1.6
2014-Sep-22 12:33N 40°43' E 029°16'0 0.3
2014-Sep-22 11:33N 40°43' E 029°15'1 0.9
2014-Sep-22 10:33N 40°43' E 029°14'1110.9
2014-Sep-22 09:33N 40°43' E 028°60'1613.4
2014-Sep-22 08:20N 40°44' E 028°38'25312.1
2014-Sep-21 11:25N 37°56' E 024°35'1214.2
2014-Sep-21 10:33N 37°48' E 024°23'1513.6
2014-Sep-21 09:27N 37°37' E 024°10'1613.1
2014-Sep-21 08:15N 37°36' E 023°50'912.8
2014-Sep-21 07:33N 37°42' E 023°41'1313.1
2014-Sep-21 06:33N 37°54' E 023°36'3 2.9
2014-Sep-21 05:33N 37°57' E 023°36'0 0.0
2014-Sep-21 04:33N 37°57' E 023°36'0 0.0
2014-Sep-21 03:33N 37°57' E 023°36'0 0.0
2014-Sep-21 02:33N 37°57' E 023°36'0 0.0
2014-Sep-21 01:33N 37°57' E 023°36'0 0.0
2014-Sep-21 00:30N 37°57' E 023°36'0 0.0
2014-Sep-20 23:33N 37°57' E 023°36'0 0.0
2014-Sep-20 22:33N 37°57' E 023°36'0 0.0
2014-Sep-20 21:33N 37°57' E 023°36'0 0.0
2014-Sep-20 20:33N 37°57' E 023°36'0 0.0
2014-Sep-20 19:33N 37°57' E 023°36'6 6.0
2014-Sep-20 18:34N 37°52' E 023°39'1413.9
2014-Sep-20 17:33N 37°39' E 023°46'1514.1
2014-Sep-20 16:30N 37°24' E 023°42'19711.9
2014-Sep-20 00:00N 36°24' E 019°48'16413.7 230 / 41025.810.8 0.526.019.926.0
2014-Sep-19 12:00N 36°24' E 016°24'15613.0 150 / 171020.710.8 1.526.521.326.0
2014-Sep-19 00:00N 36°48' E 013°12'1012.9 130 / 261020.9 5.4 2.026.023.824.0
2014-Sep-18 23:15N 36°53' E 013°02'912.2
2014-Sep-18 22:32N 36°55' E 012°51'1212.5
2014-Sep-18 21:33N 36°59' E 012°37'1212.4
2014-Sep-18 20:33N 37°02' E 012°22'1312.7
2014-Sep-18 19:31N 37°06' E 012°06'3012.8
2014-Sep-18 17:10N 37°16' E 011°30'813.1
2014-Sep-18 16:33N 37°19' E 011°21'1313.2
2014-Sep-18 15:33N 37°25' E 011°06'2713.5
2014-Sep-18 13:33N 37°33' E 010°34'1413.7
2014-Sep-18 12:33N 37°35' E 010°17'1017.1
2014-Sep-18 12:00N 37°30' E 010°06'716.8 150 / 261014.3 5.4 2.027.523.925.0
2014-Sep-18 11:33N 37°35' E 009°60'1413.8
2014-Sep-18 10:33N 37°39' E 009°43'1413.7
2014-Sep-18 09:33N 37°42' E 009°26'1414.0
2014-Sep-18 08:33N 37°46' E 009°09'1514.2
2014-Sep-18 07:31N 37°49' E 008°51'1613.8
2014-Sep-18 06:21N 37°54' E 008°31'1113.4
2014-Sep-18 05:33N 37°56' E 008°18'7213.0
2014-Sep-18 00:00N 38°12' E 006°48'8713.3 120 / 151012.810.8 1.027.523.925.0
2014-Sep-17 17:26N 38°34' E 005°00'7213.2
2014-Sep-17 12:00N 38°48' E 003°30'3513.4 240 / 61008.410.8 0.529.024.026.0
2014-Sep-17 09:24N 38°59' E 002°47'1113.0
2014-Sep-17 08:31N 39°02' E 002°33'2913.1
2014-Sep-17 06:17N 39°09' E 001°57'8613.7
2014-Sep-17 00:00N 39°18' E 000°06'1611.2 200 / 71012.210.8 1.026.021.527.0
2014-Sep-16 22:32N 39°25' W 000°13'5 1.7
2014-Sep-16 19:31N 39°26' W 000°19'0 0.0
2014-Sep-16 18:31N 39°26' W 000°19'0 0.0
2014-Sep-16 17:31N 39°26' W 000°19'0 0.0
2014-Sep-16 16:31N 39°26' W 000°19'0 0.0
2014-Sep-16 15:28N 39°26' W 000°19'0 0.0
2014-Sep-16 14:31N 39°26' W 000°19'0 0.0
2014-Sep-16 13:31N 39°26' W 000°19'0 0.0
2014-Sep-16 12:25N 39°26' W 000°19'0 0.2
2014-Sep-16 11:33N 39°26' W 000°19'7 6.8
2014-Sep-16 10:33N 39°22' W 000°12'4012.8
2014-Sep-16 07:24N 38°51' E 000°21'1411.9
2014-Sep-16 06:15N 38°37' E 000°24'2413.3
2014-Sep-16 04:26N 38°17' E 000°07'1213.0
2014-Sep-16 03:32N 38°07' W 000°01'1313.2
2014-Sep-16 02:33N 37°56' W 000°10'1312.7
2014-Sep-16 01:33N 37°46' W 000°20'1312.6
2014-Sep-16 00:32N 37°35' W 000°29'610.1
2014-Sep-16 00:00N 37°30' W 000°30'818.0 230 / 61016.210.8 0.525.020.426.0
2014-Sep-15 23:33N 37°26' W 000°39'1412.7
2014-Sep-15 22:29N 37°17' W 000°51'1412.7
2014-Sep-15 21:24N 37°08' W 001°05'1112.5
2014-Sep-15 20:32N 37°01' W 001°15'1312.8
2014-Sep-15 19:30N 36°53' W 001°27'18914.5
2014-Sep-15 06:26N 36°00' W 005°13'9114.2
2014-Sep-15 00:00N 36°00' W 007°06'17013.6 260 / 91020.110.8 0.523.019.623.0
2014-Sep-14 11:31N 37°47' W 009°51'1414.2
2014-Sep-14 10:33N 38°01' W 009°53'  
Track history (hours):
 
Tides and Currents Weather Stations Pressure Air Temp Water Temp Dewpoint Dewpoint Depression Visibility Wind Speed Wind Dir Waves Ship Positions

Seago Piraeus

Last reported at 2014-Sep-24 01:28 UTC. Time now 2014-Sep-24 04:26 UTC.
Position N 40°46' E 029°43'.

Length 294 m; draft 12.3 m.

Type: Ship (hazmat cat A). MMSI: 219117000.

Date/timePositionNaut miles runAvg speedWind from/ knotsBaromVisibWave heightAir tempDewpointWater temp
2014-Sep-24 01:28N 40°46' E 029°43'0 0.0
2014-Sep-23 23:16N 40°46' E 029°43'1 0.1
2014-Sep-23 02:18N 40°46' E 029°41'810.9
2014-Sep-23 01:33N 40°45' E 029°30'9 8.8
2014-Sep-23 00:32N 40°44' E 029°19'4 4.5
2014-Sep-22 23:33N 40°46' E 029°14'0 0.1
2014-Sep-22 22:33N 40°46' E 029°14'0 0.2
2014-Sep-22 21:33N 40°46' E 029°13'1 1.4
2014-Sep-22 20:33N 40°45' E 029°12'2 2.0
2014-Sep-22 19:33N 40°44' E 029°14'1 0.7
2014-Sep-22 18:33N 40°45' E 029°14'3 3.1
2014-Sep-22 17:33N 40°43' E 029°10'2 1.9
2014-Sep-22 16:33N 40°45' E 029°12'1 0.7
2014-Sep-22 15:33N 40°45' E 029°12'1 0.8
2014-Sep-22 14:33N 40°44' E 029°13'1 1.4
2014-Sep-22 13:33N 40°44' E 029°15'2 1.6
2014-Sep-22 12:33N 40°43' E 029°16'0 0.3
2014-Sep-22 11:33N 40°43' E 029°15'1 0.9
2014-Sep-22 10:33N 40°43' E 029°14'1110.9
2014-Sep-22 09:33N 40°43' E 028°60'1613.4
2014-Sep-22 08:20N 40°44' E 028°38'25312.1
2014-Sep-21 11:25N 37°56' E 024°35'1214.2
2014-Sep-21 10:33N 37°48' E 024°23'1513.6
2014-Sep-21 09:27N 37°37' E 024°10'1613.1
2014-Sep-21 08:15N 37°36' E 023°50'912.8
2014-Sep-21 07:33N 37°42' E 023°41'1313.1
2014-Sep-21 06:33N 37°54' E 023°36'3 2.9
2014-Sep-21 05:33N 37°57' E 023°36'0 0.0
2014-Sep-21 04:33N 37°57' E 023°36'0 0.0
2014-Sep-21 03:33N 37°57' E 023°36'0 0.0
2014-Sep-21 02:33N 37°57' E 023°36'0 0.0
2014-Sep-21 01:33N 37°57' E 023°36'0 0.0
2014-Sep-21 00:30N 37°57' E 023°36'0 0.0
2014-Sep-20 23:33N 37°57' E 023°36'0 0.0
2014-Sep-20 22:33N 37°57' E 023°36'0 0.0
2014-Sep-20 21:33N 37°57' E 023°36'0 0.0
2014-Sep-20 20:33N 37°57' E 023°36'0 0.0
2014-Sep-20 19:33N 37°57' E 023°36'6 6.0
2014-Sep-20 18:34N 37°52' E 023°39'1413.9
2014-Sep-20 17:33N 37°39' E 023°46'1514.1
2014-Sep-20 16:30N 37°24' E 023°42'19711.9
2014-Sep-20 00:00N 36°24' E 019°48'16413.7 230 / 41025.810.8 0.526.019.926.0
2014-Sep-19 12:00N 36°24' E 016°24'15613.0 150 / 171020.710.8 1.526.521.326.0
2014-Sep-19 00:00N 36°48' E 013°12'1012.9 130 / 261020.9 5.4 2.026.023.824.0
2014-Sep-18 23:15N 36°53' E 013°02'912.2
2014-Sep-18 22:32N 36°55' E 012°51'1212.5
2014-Sep-18 21:33N 36°59' E 012°37'1212.4
2014-Sep-18 20:33N 37°02' E 012°22'1312.7
2014-Sep-18 19:31N 37°06' E 012°06'3012.8
2014-Sep-18 17:10N 37°16' E 011°30'813.1
2014-Sep-18 16:33N 37°19' E 011°21'1313.2
2014-Sep-18 15:33N 37°25' E 011°06'2713.5
2014-Sep-18 13:33N 37°33' E 010°34'1413.7
2014-Sep-18 12:33N 37°35' E 010°17'1017.1
2014-Sep-18 12:00N 37°30' E 010°06'716.8 150 / 261014.3 5.4 2.027.523.925.0
2014-Sep-18 11:33N 37°35' E 009°60'1413.8
2014-Sep-18 10:33N 37°39' E 009°43'1413.7
2014-Sep-18 09:33N 37°42' E 009°26'1414.0
2014-Sep-18 08:33N 37°46' E 009°09'1514.2
2014-Sep-18 07:31N 37°49' E 008°51'1613.8
2014-Sep-18 06:21N 37°54' E 008°31'1113.4
2014-Sep-18 05:33N 37°56' E 008°18'7213.0
2014-Sep-18 00:00N 38°12' E 006°48'8713.3 120 / 151012.810.8 1.027.523.925.0
2014-Sep-17 17:26N 38°34' E 005°00'7213.2
2014-Sep-17 12:00N 38°48' E 003°30'3513.4 240 / 61008.410.8 0.529.024.026.0
2014-Sep-17 09:24N 38°59' E 002°47'1113.0
2014-Sep-17 08:31N 39°02' E 002°33'2913.1
2014-Sep-17 06:17N 39°09' E 001°57'8613.7
2014-Sep-17 00:00N 39°18' E 000°06'1611.2 200 / 71012.210.8 1.026.021.527.0
2014-Sep-16 22:32N 39°25' W 000°13'5 1.7
2014-Sep-16 19:31N 39°26' W 000°19'0 0.0
2014-Sep-16 18:31N 39°26' W 000°19'0 0.0
2014-Sep-16 17:31N 39°26' W 000°19'0 0.0
2014-Sep-16 16:31N 39°26' W 000°19'0 0.0
2014-Sep-16 15:28N 39°26' W 000°19'0 0.0
2014-Sep-16 14:31N 39°26' W 000°19'0 0.0
2014-Sep-16 13:31N 39°26' W 000°19'0 0.0
2014-Sep-16 12:25N 39°26' W 000°19'0 0.2
2014-Sep-16 11:33N 39°26' W 000°19'7 6.8
2014-Sep-16 10:33N 39°22' W 000°12'4012.8
2014-Sep-16 07:24N 38°51' E 000°21'1411.9
2014-Sep-16 06:15N 38°37' E 000°24'2413.3
2014-Sep-16 04:26N 38°17' E 000°07'1213.0
2014-Sep-16 03:32N 38°07' W 000°01'1313.2
2014-Sep-16 02:33N 37°56' W 000°10'1312.7
2014-Sep-16 01:33N 37°46' W 000°20'1312.6
2014-Sep-16 00:32N 37°35' W 000°29'610.1
2014-Sep-16 00:00N 37°30' W 000°30'818.0 230 / 61016.210.8 0.525.020.426.0
2014-Sep-15 23:33N 37°26' W 000°39'1412.7
2014-Sep-15 22:29N 37°17' W 000°51'1412.7
2014-Sep-15 21:24N 37°08' W 001°05'1112.5
2014-Sep-15 20:32N 37°01' W 001°15'1312.8
2014-Sep-15 19:30N 36°53' W 001°27'18914.5
2014-Sep-15 06:26N 36°00' W 005°13'9114.2
2014-Sep-15 00:00N 36°00' W 007°06'17013.6 260 / 91020.110.8 0.523.019.623.0
2014-Sep-14 11:31N 37°47' W 009°51'1414.2
2014-Sep-14 10:33N 38°01' W 009°53'  

Dump ship's entire track history